sensor_id;sensor_type;location;lat;lon;timestamp;pressure;altitude;pressure_sealevel;temperature;humidity
77120;BME280;66073;47.730;9.352;2023-01-30T05:46:25;97455.13;;;-2.22;77.05
77120;BME280;66073;47.730;9.352;2023-01-30T05:48:51;97458.75;;;-2.09;76.19
77120;BME280;66073;47.730;9.352;2023-01-30T05:51:19;97460.00;;;-2.19;76.61
77120;BME280;66073;47.730;9.352;2023-01-30T05:53:45;97468.81;;;-2.20;76.32
77120;BME280;66073;47.730;9.352;2023-01-30T05:56:10;97471.94;;;-2.02;75.18
77120;BME280;66073;47.730;9.352;2023-01-30T05:58:38;97474.81;;;-2.12;75.53
77120;BME280;66073;47.730;9.352;2023-01-30T06:01:10;97472.13;;;-2.04;75.41
77120;BME280;66073;47.730;9.352;2023-01-30T06:03:36;97461.72;;;-2.34;76.05
77120;BME280;66073;47.730;9.352;2023-01-30T06:06:04;97463.69;;;-2.14;75.67
77120;BME280;66073;47.730;9.352;2023-01-30T06:08:31;97461.53;;;-2.25;75.53
77120;BME280;66073;47.730;9.352;2023-01-30T06:11:05;97454.34;;;-2.31;76.20
77120;BME280;66073;47.730;9.352;2023-01-30T06:13:31;97454.41;;;-2.39;76.51
77120;BME280;66073;47.730;9.352;2023-01-30T06:15:56;97452.38;;;-2.29;76.15
77120;BME280;66073;47.730;9.352;2023-01-30T06:18:22;97445.28;;;-1.97;75.22
77120;BME280;66073;47.730;9.352;2023-01-30T06:20:49;97452.44;;;-2.14;75.88
77120;BME280;66073;47.730;9.352;2023-01-30T06:23:15;97454.88;;;-2.13;76.14
77120;BME280;66073;47.730;9.352;2023-01-30T06:25:45;97442.56;;;-2.27;76.47
77120;BME280;66073;47.730;9.352;2023-01-30T06:28:12;97441.34;;;-2.16;75.73
77120;BME280;66073;47.730;9.352;2023-01-30T06:30:38;97435.03;;;-2.22;75.99
77120;BME280;66073;47.730;9.352;2023-01-30T06:33:04;97440.47;;;-2.31;76.24
77120;BME280;66073;47.730;9.352;2023-01-30T06:35:29;97441.63;;;-2.34;76.06
77120;BME280;66073;47.730;9.352;2023-01-30T06:37:55;97442.56;;;-2.27;76.29
77120;BME280;66073;47.730;9.352;2023-01-30T06:40:20;97454.69;;;-2.34;76.38
77120;BME280;66073;47.730;9.352;2023-01-30T06:42:47;97459.22;;;-2.28;76.00
77120;BME280;66073;47.730;9.352;2023-01-30T06:45:15;97469.41;;;-2.33;75.96
77120;BME280;66073;47.730;9.352;2023-01-30T06:47:45;97472.22;;;-2.42;76.68
77120;BME280;66073;47.730;9.352;2023-01-30T06:50:11;97477.22;;;-2.25;76.02
77120;BME280;66073;47.730;9.352;2023-01-30T06:52:44;97492.66;;;-2.15;75.54
77120;BME280;66073;47.730;9.352;2023-01-30T06:55:13;97496.59;;;-1.96;74.66
77120;BME280;66073;47.730;9.352;2023-01-30T06:57:38;97493.16;;;-2.20;75.74
77120;BME280;66073;47.730;9.352;2023-01-30T07:00:06;97485.31;;;-2.20;75.88
77120;BME280;66073;47.730;9.352;2023-01-30T07:02:32;97498.63;;;-2.07;75.75
77120;BME280;66073;47.730;9.352;2023-01-30T07:05:04;97504.31;;;-2.03;75.13
77120;BME280;66073;47.730;9.352;2023-01-30T07:07:31;97498.97;;;-2.10;74.92
77120;BME280;66073;47.730;9.352;2023-01-30T07:09:57;97507.09;;;-1.82;74.29
77120;BME280;66073;47.730;9.352;2023-01-30T07:12:24;97513.16;;;-2.04;75.05
77120;BME280;66073;47.730;9.352;2023-01-30T07:14:51;97517.06;;;-2.23;75.46
77120;BME280;66073;47.730;9.352;2023-01-30T07:17:18;97504.41;;;-2.42;75.92
77120;BME280;66073;47.730;9.352;2023-01-30T07:19:43;97510.22;;;-2.32;76.01
77120;BME280;66073;47.730;9.352;2023-01-30T07:22:09;97501.91;;;-2.35;75.89
77120;BME280;66073;47.730;9.352;2023-01-30T07:24:35;97512.69;;;-2.30;75.71
77120;BME280;66073;47.730;9.352;2023-01-30T07:27:01;97531.50;;;-2.35;75.95
77120;BME280;66073;47.730;9.352;2023-01-30T07:29:26;97521.81;;;-2.26;75.88
77120;BME280;66073;47.730;9.352;2023-01-30T07:31:52;97532.97;;;-2.32;75.94
77120;BME280;66073;47.730;9.352;2023-01-30T07:34:17;97531.75;;;-2.22;75.93
77120;BME280;66073;47.730;9.352;2023-01-30T07:36:43;97534.63;;;-2.39;76.81
77120;BME280;66073;47.730;9.352;2023-01-30T07:39:08;97525.66;;;-2.14;75.88
77120;BME280;66073;47.730;9.352;2023-01-30T07:41:35;97525.75;;;-2.30;76.53
77120;BME280;66073;47.730;9.352;2023-01-30T07:44:01;97514.47;;;-2.31;76.21
77120;BME280;66073;47.730;9.352;2023-01-30T07:46:27;97510.75;;;-2.36;76.73
77120;BME280;66073;47.730;9.352;2023-01-30T07:49:00;97519.44;;;-2.36;76.46
77120;BME280;66073;47.730;9.352;2023-01-30T07:51:25;97498.09;;;-2.02;75.15
77120;BME280;66073;47.730;9.352;2023-01-30T07:53:51;97485.97;;;-2.18;75.35
77120;BME280;66073;47.730;9.352;2023-01-30T07:56:16;97473.88;;;-1.81;74.59
77120;BME280;66073;47.730;9.352;2023-01-30T07:58:44;97478.31;;;-1.82;74.75
77120;BME280;66073;47.730;9.352;2023-01-30T08:01:10;97469.06;;;-2.07;75.17
77120;BME280;66073;47.730;9.352;2023-01-30T08:03:35;97481.00;;;-1.53;73.88
77120;BME280;66073;47.730;9.352;2023-01-30T08:06:01;97472.69;;;-1.56;74.05
77120;BME280;66073;47.730;9.352;2023-01-30T08:08:26;97470.28;;;-1.80;74.72
77120;BME280;66073;47.730;9.352;2023-01-30T08:10:52;97489.09;;;-1.62;74.54
77120;BME280;66073;47.730;9.352;2023-01-30T08:13:17;97496.06;;;-1.55;74.44
77120;BME280;66073;47.730;9.352;2023-01-30T08:15:43;97502.63;;;-1.73;74.59
77120;BME280;66073;47.730;9.352;2023-01-30T08:18:08;97500.06;;;-1.44;74.04
77120;BME280;66073;47.730;9.352;2023-01-30T08:20:35;97511.25;;;-1.35;73.79
77120;BME280;66073;47.730;9.352;2023-01-30T08:23:00;97515.84;;;-1.37;73.94
77120;BME280;66073;47.730;9.352;2023-01-30T08:25:29;97525.72;;;-1.25;73.63
77120;BME280;66073;47.730;9.352;2023-01-30T08:27:57;97523.88;;;-1.39;73.83
77120;BME280;66073;47.730;9.352;2023-01-30T08:30:23;97519.91;;;-1.50;73.81
77120;BME280;66073;47.730;9.352;2023-01-30T08:32:48;97519.56;;;-1.32;73.97
77120;BME280;66073;47.730;9.352;2023-01-30T08:35:14;97520.03;;;-1.43;74.39
77120;BME280;66073;47.730;9.352;2023-01-30T08:37:40;97528.41;;;-1.47;74.93
77120;BME280;66073;47.730;9.352;2023-01-30T08:40:07;97527.66;;;-1.56;74.53
77120;BME280;66073;47.730;9.352;2023-01-30T08:42:34;97529.81;;;-1.60;74.95
77120;BME280;66073;47.730;9.352;2023-01-30T08:44:59;97526.59;;;-1.47;74.67
77120;BME280;66073;47.730;9.352;2023-01-30T08:47:25;97531.59;;;-1.23;73.45
77120;BME280;66073;47.730;9.352;2023-01-30T08:49:51;97524.59;;;-1.45;73.30
77120;BME280;66073;47.730;9.352;2023-01-30T08:52:18;97512.56;;;-1.69;74.15
77120;BME280;66073;47.730;9.352;2023-01-30T08:54:43;97513.88;;;-1.50;73.38
77120;BME280;66073;47.730;9.352;2023-01-30T08:57:09;97503.50;;;-0.85;72.37
77120;BME280;66073;47.730;9.352;2023-01-30T08:59:34;97508.81;;;-0.78;71.90
77120;BME280;66073;47.730;9.352;2023-01-30T09:02:00;97512.91;;;-0.90;72.22
77120;BME280;66073;47.730;9.352;2023-01-30T09:04:28;97523.47;;;-0.69;71.53
77120;BME280;66073;47.730;9.352;2023-01-30T09:06:54;97548.31;;;-0.65;71.37
77120;BME280;66073;47.730;9.352;2023-01-30T09:09:19;97560.31;;;-0.85;71.54
77120;BME280;66073;47.730;9.352;2023-01-30T09:11:45;97561.34;;;-1.01;72.47
77120;BME280;66073;47.730;9.352;2023-01-30T09:14:13;97547.22;;;-0.85;71.29
77120;BME280;66073;47.730;9.352;2023-01-30T09:16:38;97544.94;;;-1.18;72.35
77120;BME280;66073;47.730;9.352;2023-01-30T09:19:04;97556.38;;;-1.11;72.92
77120;BME280;66073;47.730;9.352;2023-01-30T09:21:29;97552.66;;;-1.02;72.38
77120;BME280;66073;47.730;9.352;2023-01-30T09:23:56;97547.31;;;-0.64;71.86
77120;BME280;66073;47.730;9.352;2023-01-30T09:26:22;97546.06;;;-0.68;71.53
77120;BME280;66073;47.730;9.352;2023-01-30T09:28:47;97538.25;;;-0.47;70.57
77120;BME280;66073;47.730;9.352;2023-01-30T09:31:12;97544.81;;;-0.22;69.98
77120;BME280;66073;47.730;9.352;2023-01-30T09:33:38;97540.44;;;-0.15;69.74
77120;BME280;66073;47.730;9.352;2023-01-30T09:36:04;97546.97;;;0.53;68.32
77120;BME280;66073;47.730;9.352;2023-01-30T09:38:29;97566.56;;;0.15;69.22
77120;BME280;66073;47.730;9.352;2023-01-30T09:41:25;97563.44;;;0.26;67.51
77120;BME280;66073;47.730;9.352;2023-01-30T09:49:28;97566.06;;;0.26;68.82
77120;BME280;66073;47.730;9.352;2023-01-30T09:54:44;97548.19;;;0.15;69.30
77120;BME280;66073;47.730;9.352;2023-01-30T09:57:16;97538.41;;;0.23;68.46
77120;BME280;66073;47.730;9.352;2023-01-30T10:00:23;97527.34;;;0.28;68.75
77120;BME280;66073;47.730;9.352;2023-01-30T10:03:10;97533.63;;;0.55;68.24
77120;BME280;66073;47.730;9.352;2023-01-30T10:14:27;97528.22;;;0.35;69.37
77120;BME280;66073;47.730;9.352;2023-01-30T10:25:16;97532.50;;;0.64;68.73
77120;BME280;66073;47.730;9.352;2023-01-30T10:27:52;97518.00;;;1.02;67.16
77120;BME280;66073;47.730;9.352;2023-01-30T10:30:19;97532.78;;;0.54;66.81
77120;BME280;66073;47.730;9.352;2023-01-30T10:33:02;97523.78;;;0.91;67.07
77120;BME280;66073;47.730;9.352;2023-01-30T10:35:33;97518.34;;;1.33;65.39
77120;BME280;66073;47.730;9.352;2023-01-30T10:40:42;97512.66;;;0.89;66.95
77120;BME280;66073;47.730;9.352;2023-01-30T10:46:03;97499.22;;;1.12;66.52
77120;BME280;66073;47.730;9.352;2023-01-30T10:48:54;97492.41;;;1.17;66.20
77120;BME280;66073;47.730;9.352;2023-01-30T10:54:24;97421.16;;;1.06;65.82
77120;BME280;66073;47.730;9.352;2023-01-30T10:57:34;97423.47;;;0.81;66.17
77120;BME280;66073;47.730;9.352;2023-01-30T11:05:37;97432.72;;;2.05;63.22
77120;BME280;66073;47.730;9.352;2023-01-30T11:08:17;97440.38;;;1.60;63.61
77120;BME280;66073;47.730;9.352;2023-01-30T11:10:44;97435.94;;;1.80;62.75
77120;BME280;66073;47.730;9.352;2023-01-30T11:13:16;97433.53;;;2.44;61.30
77120;BME280;66073;47.730;9.352;2023-01-30T11:15:46;97420.19;;;2.07;61.96
77120;BME280;66073;47.730;9.352;2023-01-30T11:18:14;97401.91;;;1.59;62.20
77120;BME280;66073;47.730;9.352;2023-01-30T11:20:43;97398.06;;;1.68;62.28
77120;BME280;66073;47.730;9.352;2023-01-30T11:23:43;97395.84;;;1.72;61.99
77120;BME280;66073;47.730;9.352;2023-01-30T11:26:27;97400.91;;;1.86;61.46
77120;BME280;66073;47.730;9.352;2023-01-30T11:28:55;97381.56;;;2.71;59.84
77120;BME280;66073;47.730;9.352;2023-01-30T11:31:27;97381.50;;;2.14;60.33
77120;BME280;66073;47.730;9.352;2023-01-30T11:34:21;97373.69;;;2.78;59.04
77120;BME280;66073;47.730;9.352;2023-01-30T11:36:47;97365.25;;;3.00;58.98
77120;BME280;66073;47.730;9.352;2023-01-30T11:41:56;97369.16;;;2.91;58.38
77120;BME280;66073;47.730;9.352;2023-01-30T11:44:32;97357.56;;;2.99;59.40
77120;BME280;66073;47.730;9.352;2023-01-30T11:47:01;97363.34;;;3.59;57.37
77120;BME280;66073;47.730;9.352;2023-01-30T11:49:42;97362.25;;;2.90;58.92
77120;BME280;66073;47.730;9.352;2023-01-30T11:52:11;97367.53;;;2.90;58.68
77120;BME280;66073;47.730;9.352;2023-01-30T11:54:41;97369.72;;;3.07;59.30
77120;BME280;66073;47.730;9.352;2023-01-30T11:57:17;97369.22;;;3.23;58.54
77120;BME280;66073;47.730;9.352;2023-01-30T11:59:59;97369.56;;;3.95;57.55
77120;BME280;66073;47.730;9.352;2023-01-30T12:02:31;97359.09;;;3.82;57.63
77120;BME280;66073;47.730;9.352;2023-01-30T12:05:05;97369.22;;;3.85;57.34
77120;BME280;66073;47.730;9.352;2023-01-30T12:07:33;97364.28;;;3.33;58.00
77120;BME280;66073;47.730;9.352;2023-01-30T12:10:25;97345.34;;;3.11;58.28
77120;BME280;66073;47.730;9.352;2023-01-30T12:13:00;97329.34;;;3.06;59.54
77120;BME280;66073;47.730;9.352;2023-01-30T12:15:33;97337.84;;;2.57;60.77
77120;BME280;66073;47.730;9.352;2023-01-30T12:18:34;97347.16;;;2.66;60.64
77120;BME280;66073;47.730;9.352;2023-01-30T12:23:59;97362.53;;;2.69;61.30
77120;BME280;66073;47.730;9.352;2023-01-30T12:26:36;97366.34;;;2.80;60.26
77120;BME280;66073;47.730;9.352;2023-01-30T12:29:26;97358.84;;;3.28;58.70
77120;BME280;66073;47.730;9.352;2023-01-30T12:32:16;97362.81;;;3.06;59.56
77120;BME280;66073;47.730;9.352;2023-01-30T12:34:45;97358.38;;;2.42;61.27
77120;BME280;66073;47.730;9.352;2023-01-30T12:45:25;97322.88;;;2.51;61.86
77120;BME280;66073;47.730;9.352;2023-01-30T12:48:22;97316.38;;;2.47;62.27
77120;BME280;66073;47.730;9.352;2023-01-30T12:51:03;97311.91;;;2.54;62.69
77120;BME280;66073;47.730;9.352;2023-01-30T12:53:43;97332.19;;;2.60;62.63
77120;BME280;66073;47.730;9.352;2023-01-30T12:56:41;97332.69;;;2.82;62.01
77120;BME280;66073;47.730;9.352;2023-01-30T12:59:45;97326.91;;;2.47;62.08
77120;BME280;66073;47.730;9.352;2023-01-30T13:08:18;97318.81;;;2.55;62.58
77120;BME280;66073;47.730;9.352;2023-01-30T13:10:51;97306.97;;;2.77;62.28
77120;BME280;66073;47.730;9.352;2023-01-30T13:22:15;97297.84;;;3.11;61.50
77120;BME280;66073;47.730;9.352;2023-01-30T13:27:43;97302.06;;;3.19;60.91
77120;BME280;66073;47.730;9.352;2023-01-30T13:30:15;97306.03;;;3.03;61.65
77120;BME280;66073;47.730;9.352;2023-01-30T13:32:50;97292.44;;;3.37;61.08
77120;BME280;66073;47.730;9.352;2023-01-30T13:35:34;97304.94;;;3.48;60.59
77120;BME280;66073;47.730;9.352;2023-01-30T13:38:06;97307.59;;;3.73;59.84
77120;BME280;66073;47.730;9.352;2023-01-30T13:40:41;97305.78;;;3.42;60.52
77120;BME280;66073;47.730;9.352;2023-01-30T13:45:39;97307.97;;;3.21;60.95
77120;BME280;66073;47.730;9.352;2023-01-30T13:53:52;97290.41;;;3.02;62.01
77120;BME280;66073;47.730;9.352;2023-01-30T14:09:32;97307.22;;;3.07;61.16
77120;BME280;66073;47.730;9.352;2023-01-30T14:12:01;97304.22;;;3.35;60.11
77120;BME280;66073;47.730;9.352;2023-01-30T14:14:33;97295.19;;;3.18;61.23
77120;BME280;66073;47.730;9.352;2023-01-30T14:17:11;97298.91;;;3.04;61.10
77120;BME280;66073;47.730;9.352;2023-01-30T14:38:40;97323.50;;;2.97;62.98
77120;BME280;66073;47.730;9.352;2023-01-30T14:41:25;97330.75;;;3.09;62.68
77120;BME280;66073;47.730;9.352;2023-01-30T14:43:51;97333.91;;;3.24;61.89
77120;BME280;66073;47.730;9.352;2023-01-30T14:56:58;97345.28;;;2.80;63.51
77120;BME280;66073;47.730;9.352;2023-01-30T15:07:19;97338.50;;;2.97;64.12
77120;BME280;66073;47.730;9.352;2023-01-30T15:09:56;97342.91;;;3.10;63.96
77120;BME280;66073;47.730;9.352;2023-01-30T15:15:25;97351.16;;;2.75;65.34
77120;BME280;66073;47.730;9.352;2023-01-30T15:24:22;97355.72;;;3.06;64.64
77120;BME280;66073;47.730;9.352;2023-01-30T15:32:29;97369.44;;;2.70;66.12
77120;BME280;66073;47.730;9.352;2023-01-30T15:37:53;97385.66;;;2.67;66.99
77120;BME280;66073;47.730;9.352;2023-01-30T15:40:25;97385.63;;;2.80;66.61
77120;BME280;66073;47.730;9.352;2023-01-30T15:51:25;97408.41;;;2.48;67.75
77120;BME280;66073;47.730;9.352;2023-01-30T15:53:54;97405.53;;;2.63;67.93
77120;BME280;66073;47.730;9.352;2023-01-30T15:56:24;97411.97;;;2.80;67.25
77120;BME280;66073;47.730;9.352;2023-01-30T15:58:51;97412.44;;;2.51;68.70
77120;BME280;66073;47.730;9.352;2023-01-30T16:01:20;97424.81;;;2.44;69.92
77120;BME280;66073;47.730;9.352;2023-01-30T16:03:47;97418.56;;;2.38;70.20
77120;BME280;66073;47.730;9.352;2023-01-30T16:06:30;97420.16;;;2.33;71.31
77120;BME280;66073;47.730;9.352;2023-01-30T16:11:55;97428.69;;;2.35;72.35
77120;BME280;66073;47.730;9.352;2023-01-30T16:14:21;97438.81;;;1.98;73.35
77120;BME280;66073;47.730;9.352;2023-01-30T16:19:30;97443.88;;;2.20;74.28
77120;BME280;66073;47.730;9.352;2023-01-30T16:22:05;97436.97;;;2.06;74.69
77120;BME280;66073;47.730;9.352;2023-01-30T16:24:36;97444.88;;;2.06;74.35
77120;BME280;66073;47.730;9.352;2023-01-30T16:27:07;97456.22;;;1.99;75.63
77120;BME280;66073;47.730;9.352;2023-01-30T16:29:49;97459.28;;;2.10;75.72
77120;BME280;66073;47.730;9.352;2023-01-30T16:32:25;97465.13;;;1.98;76.81
77120;BME280;66073;47.730;9.352;2023-01-30T16:35:23;97481.91;;;1.84;78.14
77120;BME280;66073;47.730;9.352;2023-01-30T16:37:52;97481.50;;;1.94;78.35
77120;BME280;66073;47.730;9.352;2023-01-30T16:40:23;97489.34;;;1.68;78.83
77120;BME280;66073;47.730;9.352;2023-01-30T16:42:57;97497.47;;;1.79;79.06
77120;BME280;66073;47.730;9.352;2023-01-30T16:53:25;97524.06;;;2.04;78.09
77120;BME280;66073;47.730;9.352;2023-01-30T16:56:14;97519.25;;;2.34;77.19
77120;BME280;66073;47.730;9.352;2023-01-30T16:58:46;97521.25;;;2.19;77.45
77120;BME280;66073;47.730;9.352;2023-01-30T17:01:12;97537.03;;;2.06;78.02
77120;BME280;66073;47.730;9.352;2023-01-30T17:03:41;97542.06;;;2.00;78.72
77120;BME280;66073;47.730;9.352;2023-01-30T17:06:22;97537.63;;;2.01;78.00
77120;BME280;66073;47.730;9.352;2023-01-30T17:08:57;97548.13;;;1.88;79.01
77120;BME280;66073;47.730;9.352;2023-01-30T17:11:33;97538.69;;;2.39;76.91
77120;BME280;66073;47.730;9.352;2023-01-30T17:14:22;97543.13;;;2.26;77.38
77120;BME280;66073;47.730;9.352;2023-01-30T17:17:04;97561.75;;;2.18;77.24
77120;BME280;66073;47.730;9.352;2023-01-30T17:19:34;97565.66;;;2.41;76.82
77120;BME280;66073;47.730;9.352;2023-01-30T17:22:03;97565.66;;;2.41;76.76
77120;BME280;66073;47.730;9.352;2023-01-30T17:24:29;97556.13;;;2.47;76.25
77120;BME280;66073;47.730;9.352;2023-01-30T17:26:58;97558.75;;;2.34;76.28
77120;BME280;66073;47.730;9.352;2023-01-30T17:29:30;97573.31;;;2.10;77.84
77120;BME280;66073;47.730;9.352;2023-01-30T17:31:56;97574.91;;;2.05;77.92
77120;BME280;66073;47.730;9.352;2023-01-30T17:34:23;97579.41;;;2.24;77.72
77120;BME280;66073;47.730;9.352;2023-01-30T17:36:50;97585.28;;;2.19;77.91
77120;BME280;66073;47.730;9.352;2023-01-30T17:39:20;97581.00;;;2.12;78.35
77120;BME280;66073;47.730;9.352;2023-01-30T17:41:48;97593.16;;;2.13;78.70
77120;BME280;66073;47.730;9.352;2023-01-30T17:44:14;97586.28;;;2.25;78.67
77120;BME280;66073;47.730;9.352;2023-01-30T17:46:45;97593.16;;;2.13;78.49
77120;BME280;66073;47.730;9.352;2023-01-30T17:49:18;97586.50;;;2.30;78.38
77120;BME280;66073;47.730;9.352;2023-01-30T17:51:45;97589.88;;;2.04;79.07
77120;BME280;66073;47.730;9.352;2023-01-30T17:54:12;97602.63;;;2.00;79.20
77120;BME280;66073;47.730;9.352;2023-01-30T17:56:42;97597.69;;;2.32;77.99
77120;BME280;66073;47.730;9.352;2023-01-30T17:59:14;97604.25;;;2.02;78.50
77120;BME280;66073;47.730;9.352;2023-01-30T18:01:41;97613.19;;;2.07;78.70
77120;BME280;66073;47.730;9.352;2023-01-30T18:04:08;97603.06;;;2.11;78.42
77120;BME280;66073;47.730;9.352;2023-01-30T18:06:33;97603.69;;;2.06;78.47
77120;BME280;66073;47.730;9.352;2023-01-30T18:08:59;97616.22;;;2.11;77.83
77120;BME280;66073;47.730;9.352;2023-01-30T18:11:25;97611.66;;;1.78;79.29
77120;BME280;66073;47.730;9.352;2023-01-30T18:13:51;97617.59;;;1.93;79.04
77120;BME280;66073;47.730;9.352;2023-01-30T18:16:22;97622.28;;;2.05;78.83
77120;BME280;66073;47.730;9.352;2023-01-30T18:18:48;97629.19;;;2.06;78.44
77120;BME280;66073;47.730;9.352;2023-01-30T18:21:17;97633.34;;;2.41;77.80
77120;BME280;66073;47.730;9.352;2023-01-30T18:23:43;97639.63;;;2.46;76.62
77120;BME280;66073;47.730;9.352;2023-01-30T18:26:10;97638.16;;;2.24;77.53
77120;BME280;66073;47.730;9.352;2023-01-30T18:28:36;97645.81;;;2.13;78.26
77120;BME280;66073;47.730;9.352;2023-01-30T18:31:02;97635.47;;;2.05;78.27
77120;BME280;66073;47.730;9.352;2023-01-30T18:33:28;97638.09;;;2.05;78.84
77120;BME280;66073;47.730;9.352;2023-01-30T18:35:53;97635.88;;;2.08;78.67
77120;BME280;66073;47.730;9.352;2023-01-30T18:38:19;97642.56;;;2.11;78.90
77120;BME280;66073;47.730;9.352;2023-01-30T18:40:44;97634.66;;;2.11;78.98
77120;BME280;66073;47.730;9.352;2023-01-30T18:43:10;97636.47;;;2.04;78.81
77120;BME280;66073;47.730;9.352;2023-01-30T18:45:35;97638.53;;;2.15;78.79
77120;BME280;66073;47.730;9.352;2023-01-30T18:48:01;97631.94;;;1.84;79.43
77120;BME280;66073;47.730;9.352;2023-01-30T18:50:27;97625.84;;;1.84;79.79
77120;BME280;66073;47.730;9.352;2023-01-30T18:52:52;97636.25;;;1.98;79.59
77120;BME280;66073;47.730;9.352;2023-01-30T18:55:18;97641.31;;;2.00;79.44
77120;BME280;66073;47.730;9.352;2023-01-30T18:57:44;97638.09;;;2.05;79.08
77120;BME280;66073;47.730;9.352;2023-01-30T19:00:10;97636.72;;;2.22;78.67
77120;BME280;66073;47.730;9.352;2023-01-30T19:02:36;97634.56;;;2.32;78.23
77120;BME280;66073;47.730;9.352;2023-01-30T19:05:01;97633.25;;;2.15;78.96
77120;BME280;66073;47.730;9.352;2023-01-30T19:07:27;97632.91;;;2.24;78.45
77120;BME280;66073;47.730;9.352;2023-01-30T19:09:53;97626.44;;;2.40;77.68
77120;BME280;66073;47.730;9.352;2023-01-30T19:12:18;97624.06;;;1.91;79.68
77120;BME280;66073;47.730;9.352;2023-01-30T19:15:03;97634.47;;;2.06;79.12
77120;BME280;66073;47.730;9.352;2023-01-30T19:17:29;97629.56;;;1.96;79.58
77120;BME280;66073;47.730;9.352;2023-01-30T19:19:54;97645.72;;;1.93;80.05
77120;BME280;66073;47.730;9.352;2023-01-30T19:22:21;97648.56;;;1.91;80.25
77120;BME280;66073;47.730;9.352;2023-01-30T19:24:47;97646.72;;;1.85;80.41
77120;BME280;66073;47.730;9.352;2023-01-30T19:27:12;97643.06;;;1.86;80.80
77120;BME280;66073;47.730;9.352;2023-01-30T19:29:39;97642.91;;;1.94;80.40
77120;BME280;66073;47.730;9.352;2023-01-30T19:32:05;97643.03;;;2.21;79.45
77120;BME280;66073;47.730;9.352;2023-01-30T19:34:31;97657.03;;;2.28;79.32
77120;BME280;66073;47.730;9.352;2023-01-30T19:36:56;97658.44;;;2.24;79.69
77120;BME280;66073;47.730;9.352;2023-01-30T19:39:22;97658.06;;;2.40;78.67
77120;BME280;66073;47.730;9.352;2023-01-30T19:41:47;97662.66;;;2.25;79.02
77120;BME280;66073;47.730;9.352;2023-01-30T19:44:13;97669.63;;;2.39;78.43
77120;BME280;66073;47.730;9.352;2023-01-30T19:46:38;97665.56;;;2.43;77.84
77120;BME280;66073;47.730;9.352;2023-01-30T19:49:04;97667.63;;;2.47;77.49
77120;BME280;66073;47.730;9.352;2023-01-30T19:51:32;97666.75;;;2.27;78.25
77120;BME280;66073;47.730;9.352;2023-01-30T19:54:00;97672.19;;;2.26;78.22
77120;BME280;66073;47.730;9.352;2023-01-30T19:56:28;97677.19;;;2.08;79.31
77120;BME280;66073;47.730;9.352;2023-01-30T19:58:55;97678.13;;;1.93;79.72
77120;BME280;66073;47.730;9.352;2023-01-30T20:01:23;97689.63;;;2.20;78.85
77120;BME280;66073;47.730;9.352;2023-01-30T20:03:52;97698.91;;;2.16;78.63
77120;BME280;66073;47.730;9.352;2023-01-30T20:06:23;97714.31;;;2.19;78.67
77120;BME280;66073;47.730;9.352;2023-01-30T20:08:53;97700.03;;;2.00;79.54
77120;BME280;66073;47.730;9.352;2023-01-30T20:11:20;97699.50;;;2.12;78.94
77120;BME280;66073;47.730;9.352;2023-01-30T20:13:49;97699.81;;;2.43;77.94
77120;BME280;66073;47.730;9.352;2023-01-30T20:16:18;97697.72;;;2.25;78.28
77120;BME280;66073;47.730;9.352;2023-01-30T20:18:46;97708.06;;;2.27;77.76
77120;BME280;66073;47.730;9.352;2023-01-30T20:21:20;97713.44;;;2.06;78.69
77120;BME280;66073;47.730;9.352;2023-01-30T20:23:47;97714.13;;;2.21;78.05
77120;BME280;66073;47.730;9.352;2023-01-30T20:26:19;97716.38;;;2.24;77.80
77120;BME280;66073;47.730;9.352;2023-01-30T20:28:46;97715.50;;;2.10;78.61
77120;BME280;66073;47.730;9.352;2023-01-30T20:31:15;97716.97;;;2.26;77.97
77120;BME280;66073;47.730;9.352;2023-01-30T20:33:41;97715.56;;;2.30;78.03
77120;BME280;66073;47.730;9.352;2023-01-30T20:36:09;97718.56;;;2.14;77.91
77120;BME280;66073;47.730;9.352;2023-01-30T20:38:38;97725.22;;;2.10;78.26
77120;BME280;66073;47.730;9.352;2023-01-30T20:41:09;97730.50;;;2.16;78.41
77120;BME280;66073;47.730;9.352;2023-01-30T20:43:37;97735.09;;;2.42;77.32
77120;BME280;66073;47.730;9.352;2023-01-30T20:46:10;97737.50;;;2.37;77.74
77120;BME280;66073;47.730;9.352;2023-01-30T20:48:37;97735.44;;;2.32;77.72
77120;BME280;66073;47.730;9.352;2023-01-30T20:51:11;97746.59;;;2.28;77.98
77120;BME280;66073;47.730;9.352;2023-01-30T20:53:38;97733.84;;;2.38;77.41
77120;BME280;66073;47.730;9.352;2023-01-30T20:56:05;97730.78;;;2.28;77.33
77120;BME280;66073;47.730;9.352;2023-01-30T20:58:32;97724.44;;;2.16;78.36
77120;BME280;66073;47.730;9.352;2023-01-30T21:01:13;97732.88;;;2.05;78.36
77120;BME280;66073;47.730;9.352;2023-01-30T21:03:40;97739.75;;;1.99;78.24
77120;BME280;66073;47.730;9.352;2023-01-30T21:06:06;97748.56;;;1.85;79.39
77120;BME280;66073;47.730;9.352;2023-01-30T21:08:32;97749.00;;;1.88;79.13
77120;BME280;66073;47.730;9.352;2023-01-30T21:11:12;97752.03;;;1.64;79.75
77120;BME280;66073;47.730;9.352;2023-01-30T21:13:39;97750.88;;;1.67;80.18
77120;BME280;66073;47.730;9.352;2023-01-30T21:16:27;97748.19;;;1.88;79.30
77120;BME280;66073;47.730;9.352;2023-01-30T21:18:55;97749.75;;;1.82;79.25
77120;BME280;66073;47.730;9.352;2023-01-30T21:21:33;97755.13;;;1.95;78.96
77120;BME280;66073;47.730;9.352;2023-01-30T21:24:03;97759.34;;;1.96;78.15
77120;BME280;66073;47.730;9.352;2023-01-30T21:26:31;97752.66;;;1.94;78.40
77120;BME280;66073;47.730;9.352;2023-01-30T21:28:59;97755.47;;;2.20;77.83
77120;BME280;66073;47.730;9.352;2023-01-30T21:31:26;97753.19;;;1.83;78.90
77120;BME280;66073;47.730;9.352;2023-01-30T21:33:55;97761.13;;;1.89;78.93
77120;BME280;66073;47.730;9.352;2023-01-30T21:36:22;97765.53;;;1.82;78.93
77120;BME280;66073;47.730;9.352;2023-01-30T21:38:48;97763.19;;;1.94;78.42
77120;BME280;66073;47.730;9.352;2023-01-30T21:41:35;97757.56;;;2.04;78.19
77120;BME280;66073;47.730;9.352;2023-01-30T21:44:24;97782.16;;;1.83;79.35
77120;BME280;66073;47.730;9.352;2023-01-30T21:46:50;97782.97;;;1.83;79.59
77120;BME280;66073;47.730;9.352;2023-01-30T21:49:16;97780.69;;;2.08;78.19
77120;BME280;66073;47.730;9.352;2023-01-30T21:51:44;97768.41;;;1.87;79.00
77120;BME280;66073;47.730;9.352;2023-01-30T21:54:10;97777.09;;;1.81;79.12
77120;BME280;66073;47.730;9.352;2023-01-30T21:56:36;97782.34;;;1.81;79.47
77120;BME280;66073;47.730;9.352;2023-01-30T21:59:03;97778.13;;;1.87;79.89